Time;durP1;ratioP1;P1;durP2;ratioP2;P2;SDS_P1;SDS_P2;PMS_P1;PMS_P2;Temp;Humidity;BMP_temperature;BMP_pressure;BME280_temperature;BME280_humidity;BME280_pressure;Samples;Min_cycle;Max_cycle;Signal;HPM_P1;HPM_P2
2021/04/20 00:00:29;;;;;;;20.35;16.17;;;11.60;87.70;;;;;;6064945;23;20043;-84
2021/04/20 00:02:58;;;;;;;20.60;16.63;;;11.60;87.70;;;;;;6083385;23;20020;-84
2021/04/20 00:05:24;;;;;;;21.45;16.35;;;11.60;87.80;;;;;;6155890;23;20370;-83
2021/04/20 00:07:50;;;;;;;21.73;16.63;;;11.50;87.80;;;;;;6155342;23;20506;-83
2021/04/20 00:10:18;;;;;;;20.33;16.45;;;11.50;87.80;;;;;;6155201;23;20026;-84
2021/04/20 00:12:44;;;;;;;17.73;15.57;;;11.50;88.00;;;;;;6155569;23;20040;-83
2021/04/20 00:15:31;;;;;;;19.58;16.33;;;11.40;87.80;;;;;;6155741;23;20139;-84
2021/04/20 00:18:00;;;;;;;19.83;16.25;;;11.40;87.50;;;;;;6156143;23;20017;-83
2021/04/20 00:20:26;;;;;;;21.10;16.50;;;11.40;88.10;;;;;;6155106;23;20049;-84
2021/04/20 00:22:53;;;;;;;19.73;16.40;;;11.30;88.00;;;;;;6155449;23;20088;-82
2021/04/20 00:25:19;;;;;;;20.75;16.63;;;11.30;88.00;;;;;;6155753;23;20045;-83
2021/04/20 00:27:45;;;;;;;19.90;16.65;;;11.30;88.10;;;;;;6155085;23;20073;-83
2021/04/20 00:30:11;;;;;;;21.13;16.02;;;11.30;88.10;;;;;;6155067;23;20021;-83
2021/04/20 00:32:38;;;;;;;21.55;17.25;;;11.30;88.10;;;;;;6155210;23;20466;-83
2021/04/20 00:35:05;;;;;;;22.05;16.98;;;11.30;88.10;;;;;;6154894;23;20013;-83
2021/04/20 00:37:31;;;;;;;21.58;17.13;;;11.20;88.10;;;;;;6154657;23;20029;-84
2021/04/20 00:39:57;;;;;;;21.35;17.00;;;11.20;88.00;;;;;;6155507;23;20021;-83
2021/04/20 00:42:27;;;;;;;23.35;17.27;;;11.20;88.10;;;;;;6154719;23;20024;-83
2021/04/20 00:44:53;;;;;;;20.40;16.77;;;11.10;88.00;;;;;;6156153;23;20024;-84
2021/04/20 00:47:31;;;;;;;22.40;17.50;;;11.00;88.10;;;;;;6155849;23;20017;-83
2021/04/20 00:50:07;;;;;;;23.13;17.85;;;11.00;88.10;;;;;;6154920;23;20068;-83
2021/04/20 00:52:33;;;;;;;23.20;17.52;;;11.00;88.30;;;;;;6156191;23;20021;-83
2021/04/20 00:54:59;;;;;;;20.70;16.85;;;10.90;88.30;;;;;;6155023;23;20014;-84
2021/04/20 00:57:27;;;;;;;21.80;17.40;;;11.00;88.30;;;;;;6155140;23;20021;-83
2021/04/20 00:59:59;;;;;;;22.50;17.00;;;10.80;88.10;;;;;;6155172;23;20013;-84
2021/04/20 01:02:26;;;;;;;26.58;18.27;;;10.80;88.60;;;;;;6154237;23;20080;-83
2021/04/20 01:04:51;;;;;;;23.63;18.00;;;10.80;88.30;;;;;;6155653;23;20018;-84
2021/04/20 01:07:17;;;;;;;23.08;18.17;;;10.80;88.30;;;;;;6155247;23;20022;-83
2021/04/20 01:09:45;;;;;;;23.15;17.92;;;10.80;88.40;;;;;;6154784;23;20013;-83
2021/04/20 01:12:11;;;;;;;21.33;17.25;;;10.70;88.20;;;;;;6155088;23;20028;-82
2021/04/20 01:14:37;;;;;;;21.38;17.60;;;10.70;87.50;;;;;;6155374;23;20020;-82
2021/04/20 01:17:03;;;;;;;22.20;17.85;;;10.50;87.40;;;;;;6155244;23;20021;-83
2021/04/20 01:19:31;;;;;;;21.27;17.35;;;10.50;87.50;;;;;;6157301;23;20028;-83
2021/04/20 01:21:58;;;;;;;25.45;18.83;;;10.40;87.60;;;;;;6157258;23;20434;-83
2021/04/20 01:24:28;;;;;;;23.60;18.08;;;10.40;88.30;;;;;;6156399;23;20525;-84
2021/04/20 01:27:11;;;;;;;22.98;18.23;;;10.30;88.20;;;;;;6156232;23;20017;-83
2021/04/20 01:29:43;;;;;;;24.58;18.88;;;10.30;88.00;;;;;;6157657;23;20076;-83
2021/04/20 01:32:09;;;;;;;23.05;18.75;;;10.20;88.30;;;;;;6155929;23;20109;-83
2021/04/20 01:34:35;;;;;;;24.55;18.70;;;10.30;88.50;;;;;;6157553;23;20018;-83
2021/04/20 01:37:19;;;;;;;22.17;17.95;;;10.20;88.50;;;;;;6153630;23;20057;-83
2021/04/20 01:39:59;;;;;;;24.85;20.05;;;10.20;88.30;;;;;;6157696;23;20013;-83
2021/04/20 01:42:25;;;;;;;26.42;20.38;;;10.10;88.60;;;;;;6157235;23;20362;-83
2021/04/20 01:44:57;;;;;;;23.67;19.55;;;10.10;88.90;;;;;;6156279;23;20025;-83
2021/04/20 01:47:32;;;;;;;23.35;19.13;;;10.10;88.80;;;;;;6156983;23;20022;-83
2021/04/20 01:50:19;;;;;;;24.85;19.40;;;10.00;88.50;;;;;;6157731;23;20072;-83
2021/04/20 01:52:45;;;;;;;24.58;19.65;;;10.00;88.70;;;;;;6156717;23;20028;-83
2021/04/20 01:55:12;;;;;;;27.15;20.80;;;10.00;89.00;;;;;;6156925;23;20025;-83
2021/04/20 01:57:40;;;;;;;25.55;19.95;;;10.00;89.10;;;;;;6156909;23;20481;-83
2021/04/20 02:00:14;;;;;;;25.50;20.80;;;9.90;88.90;;;;;;6155787;23;20025;-83
2021/04/20 02:02:40;;;;;;;25.70;20.17;;;9.90;89.00;;;;;;6156870;23;20048;-82
2021/04/20 02:05:09;;;;;;;27.42;21.58;;;9.90;89.00;;;;;;6157303;23;20082;-83
2021/04/20 02:07:35;;;;;;;27.05;21.77;;;9.90;89.30;;;;;;6155482;23;20037;-83
2021/04/20 02:10:03;;;;;;;27.33;21.73;;;9.90;89.20;;;;;;6157047;23;20018;-83
2021/04/20 02:12:29;;;;;;;26.38;21.40;;;9.90;89.40;;;;;;6155869;23;20071;-83
2021/04/20 02:14:57;;;;;;;29.15;21.90;;;9.80;89.20;;;;;;6156999;23;20088;-83
2021/04/20 02:17:24;;;;;;;31.17;21.88;;;9.80;89.20;;;;;;6156850;23;20048;-83
2021/04/20 02:19:53;;;;;;;29.77;23.10;;;9.80;89.30;;;;;;6155926;23;20488;-82
2021/04/20 02:22:23;;;;;;;28.05;21.48;;;9.70;89.40;;;;;;6156438;23;20017;-83
2021/04/20 02:25:11;;;;;;;28.95;22.63;;;9.80;89.10;;;;;;6130669;23;20492;-83
2021/04/20 02:27:37;;;;;;;27.60;22.38;;;9.70;88.90;;;;;;6155296;23;20458;-83
2021/04/20 02:30:04;;;;;;;27.63;22.27;;;9.70;89.10;;;;;;6157023;23;20021;-83
2021/04/20 02:32:31;;;;;;;27.90;21.42;;;9.70;89.00;;;;;;6155927;23;20022;-82
2021/04/20 02:34:59;;;;;;;29.98;22.60;;;9.60;88.90;;;;;;6155879;23;20067;-83
2021/04/20 02:37:26;;;;;;;29.17;21.90;;;9.60;89.00;;;;;;6156491;23;20024;-83
2021/04/20 02:39:52;;;;;;;29.85;23.15;;;9.50;88.60;;;;;;6155185;23;20468;-83
2021/04/20 02:42:17;;;;;;;29.63;22.83;;;9.50;88.60;;;;;;6154826;23;20022;-83
2021/04/20 02:44:45;;;;;;;28.33;21.98;;;9.50;88.60;;;;;;6156420;23;20037;-83
2021/04/20 02:47:11;;;;;;;29.25;23.08;;;9.50;88.40;;;;;;6156128;23;20028;-82
2021/04/20 02:49:38;;;;;;;29.08;21.70;;;9.50;88.40;;;;;;6155125;23;20021;-83
2021/04/20 02:52:04;;;;;;;30.40;24.08;;;9.40;88.10;;;;;;6156823;23;20126;-83
2021/04/20 02:54:30;;;;;;;31.05;23.65;;;9.40;88.60;;;;;;6155818;23;20018;-83
2021/04/20 02:56:59;;;;;;;30.30;23.35;;;9.40;88.60;;;;;;6156944;23;20021;-83
2021/04/20 02:59:25;;;;;;;30.58;23.25;;;9.40;88.60;;;;;;6156093;23;20316;-83
2021/04/20 03:01:51;;;;;;;30.63;23.30;;;9.40;88.50;;;;;;6155619;23;20022;-83
2021/04/20 03:04:18;;;;;;;30.90;23.98;;;9.40;88.20;;;;;;6156314;23;20017;-83
2021/04/20 03:06:45;;;;;;;30.55;23.73;;;9.30;88.30;;;;;;6156749;23;20342;-82
2021/04/20 03:09:12;;;;;;;31.23;24.55;;;9.30;88.20;;;;;;6155119;23;20049;-84
2021/04/20 03:11:40;;;;;;;30.50;24.38;;;9.30;88.30;;;;;;6156362;23;20101;-83
2021/04/20 03:14:07;;;;;;;31.80;23.88;;;9.30;88.50;;;;;;6156589;23;20105;-83
2021/04/20 03:16:34;;;;;;;31.20;23.52;;;9.30;88.50;;;;;;6155335;23;20020;-83
2021/04/20 03:19:03;;;;;;;30.90;23.65;;;9.30;88.40;;;;;;6156569;23;20029;-82
2021/04/20 03:21:29;;;;;;;33.83;25.88;;;9.30;88.70;;;;;;6155516;23;20299;-82
2021/04/20 03:23:56;;;;;;;31.73;24.52;;;9.30;89.10;;;;;;6155159;23;20010;-83
2021/04/20 03:26:25;;;;;;;31.25;24.73;;;9.30;89.30;;;;;;6155801;23;20025;-83
2021/04/20 03:28:55;;;;;;;34.25;25.50;;;9.30;88.90;;;;;;6156594;23;20017;-83
2021/04/20 03:31:21;;;;;;;33.78;25.95;;;9.30;89.20;;;;;;6154854;23;20024;-83
2021/04/20 03:33:52;;;;;;;34.10;26.17;;;9.30;89.30;;;;;;6156426;23;20068;-83
2021/04/20 03:36:25;;;;;;;35.80;25.77;;;9.20;89.30;;;;;;6155787;23;20029;-82
2021/04/20 03:39:09;;;;;;;33.17;25.23;;;9.20;89.40;;;;;;6155622;23;20111;-84
2021/04/20 03:41:56;;;;;;;30.55;24.08;;;9.20;89.40;;;;;;6155981;23;20386;-83
2021/04/20 03:44:26;;;;;;;31.35;24.55;;;9.20;88.90;;;;;;6155264;23;20024;-83
2021/04/20 03:46:57;;;;;;;33.17;24.20;;;9.20;89.10;;;;;;6156479;23;20017;-83
2021/04/20 03:49:36;;;;;;;31.30;24.33;;;9.20;88.70;;;;;;6155935;23;20017;-82
2021/04/20 03:52:03;;;;;;;35.03;26.10;;;9.10;88.50;;;;;;6154768;23;20088;-83
2021/04/20 03:54:30;;;;;;;33.47;25.30;;;9.10;88.90;;;;;;6155667;23;20021;-83
2021/04/20 03:56:59;;;;;;;32.83;24.73;;;9.10;89.30;;;;;;6155783;23;20362;-83
2021/04/20 03:59:28;;;;;;;31.67;25.50;;;9.10;89.30;;;;;;6154686;23;20095;-83
2021/04/20 04:01:56;;;;;;;32.47;24.25;;;9.10;89.20;;;;;;6156252;23;20021;-83
2021/04/20 04:04:23;;;;;;;30.48;24.10;;;9.10;88.90;;;;;;6155564;23;20023;-83
2021/04/20 04:07:02;;;;;;;32.80;24.40;;;9.00;89.00;;;;;;6154999;23;20056;-83
2021/04/20 04:09:36;;;;;;;33.10;24.98;;;9.10;89.00;;;;;;6155264;23;20544;-83
2021/04/20 04:12:05;;;;;;;32.35;24.38;;;9.00;89.00;;;;;;6154947;23;20017;-83
2021/04/20 04:14:33;;;;;;;33.03;25.45;;;9.00;89.00;;;;;;6154789;23;20017;-82
2021/04/20 04:17:12;;;;;;;40.15;29.17;;;9.00;89.00;;;;;;6154652;23;20342;-83
2021/04/20 04:19:46;;;;;;;39.53;28.52;;;9.00;88.60;;;;;;6153860;23;20457;-83
2021/04/20 04:22:13;;;;;;;32.90;25.42;;;9.00;88.40;;;;;;6155658;23;20058;-83
2021/04/20 04:24:59;;;;;;;38.20;27.42;;;9.00;88.40;;;;;;6155925;23;20028;-82
2021/04/20 04:27:27;;;;;;;30.95;24.30;;;9.00;88.90;;;;;;6154390;23;20052;-83
2021/04/20 04:29:56;;;;;;;34.65;26.75;;;8.90;88.70;;;;;;6155604;23;20072;-83
2021/04/20 04:32:24;;;;;;;31.67;25.08;;;8.90;88.80;;;;;;6154343;23;20076;-83
2021/04/20 04:34:53;;;;;;;35.72;26.80;;;8.90;88.40;;;;;;6154190;23;20017;-82
2021/04/20 04:37:42;;;;;;;35.00;26.25;;;8.90;88.50;;;;;;6155288;23;20339;-83
2021/04/20 04:40:09;;;;;;;33.45;25.20;;;8.90;88.30;;;;;;6128345;23;20024;-83
2021/04/20 04:42:52;;;;;;;37.63;27.63;;;8.80;88.40;;;;;;6155868;23;20050;-82
2021/04/20 04:45:26;;;;;;;37.78;28.17;;;8.80;88.70;;;;;;6155386;23;20021;-83
2021/04/20 04:47:58;;;;;;;37.15;27.90;;;8.80;88.90;;;;;;6154895;23;20025;-83
2021/04/20 04:54:02;;;;;;;35.63;27.25;;;8.70;88.60;;;;;;6155836;23;20013;-83
2021/04/20 05:00:15;;;;;;;34.75;26.17;;;8.70;88.60;;;;;;6155140;23;20049;-83
2021/04/20 05:02:41;;;;;;;37.03;28.13;;;8.60;88.80;;;;;;6154243;23;20101;-83
2021/04/20 05:05:09;;;;;;;38.08;28.00;;;8.60;88.90;;;;;;6155749;23;20017;-83
2021/04/20 05:07:36;;;;;;;39.75;29.02;;;8.60;88.90;;;;;;6154927;23;20527;-83
2021/04/20 05:10:08;;;;;;;39.25;28.70;;;8.60;89.00;;;;;;6153006;23;20017;-83
2021/04/20 05:12:34;;;;;;;36.40;28.00;;;8.60;89.20;;;;;;6154582;23;20021;-82
2021/04/20 05:15:16;;;;;;;38.70;29.48;;;8.60;89.20;;;;;;6155287;23;20092;-83
2021/04/20 05:17:43;;;;;;;36.53;28.45;;;8.50;89.10;;;;;;6155529;23;20021;-83
2021/04/20 05:20:22;;;;;;;37.85;28.33;;;8.50;89.20;;;;;;6154141;23;20022;-83
2021/04/20 05:22:49;;;;;;;37.45;29.30;;;8.50;89.10;;;;;;6153914;23;20434;-83
2021/04/20 05:25:17;;;;;;;40.35;29.05;;;8.50;89.30;;;;;;6153659;23;20020;-83
2021/04/20 05:27:48;;;;;;;40.13;29.75;;;8.50;89.20;;;;;;6154649;23;20026;-84
2021/04/20 05:30:14;;;;;;;38.63;29.02;;;8.40;89.20;;;;;;6154319;23;20020;-83
2021/04/20 05:33:03;;;;;;;38.33;29.30;;;8.50;89.00;;;;;;6154788;23;20025;-82
2021/04/20 05:35:35;;;;;;;38.30;28.95;;;8.40;88.90;;;;;;6155116;23;20026;-83
2021/04/20 05:38:04;;;;;;;39.15;30.40;;;8.40;89.00;;;;;;6154045;23;20350;-83
2021/04/20 05:41:07;;;;;;;41.55;31.90;;;8.40;89.10;;;;;;6152831;23;20018;-84
2021/04/20 05:44:08;;;;;;;40.22;30.23;;;8.40;89.40;;;;;;6153802;23;20370;-84
2021/04/20 05:51:00;;;;;;;41.17;30.55;;;8.40;89.20;;;;;;6154949;23;20060;-84
2021/04/20 05:53:40;;;;;;;38.88;29.40;;;8.40;89.10;;;;;;6119630;23;20017;-84
2021/04/20 05:56:09;;;;;;;41.67;30.40;;;8.40;89.60;;;;;;6154509;23;20022;-83
2021/04/20 06:01:27;;;;;;;41.60;30.02;;;8.40;89.10;;;;;;6137571;23;20076;-83
2021/04/20 06:04:03;;;;;;;40.65;30.55;;;8.40;89.10;;;;;;6153004;23;20520;-82
2021/04/20 06:06:38;;;;;;;39.75;29.65;;;8.40;89.40;;;;;;6154267;23;20025;-84
2021/04/20 06:09:06;;;;;;;41.80;30.02;;;8.50;89.10;;;;;;6157049;23;20085;-84
2021/04/20 06:11:39;;;;;;;35.78;28.33;;;8.50;89.10;;;;;;6154384;23;20017;-84
2021/04/20 06:14:08;;;;;;;39.92;30.63;;;8.50;88.90;;;;;;6157177;23;20085;-84
2021/04/20 06:16:35;;;;;;;42.45;30.27;;;8.50;88.80;;;;;;6156694;23;20049;-84
2021/04/20 06:19:02;;;;;;;37.88;29.77;;;8.60;89.30;;;;;;6154629;23;20018;-81
2021/04/20 06:21:28;;;;;;;41.90;31.13;;;8.60;89.20;;;;;;6155520;23;20014;-82
2021/04/20 06:23:54;;;;;;;42.65;31.48;;;8.60;89.30;;;;;;6154534;23;20076;-83
2021/04/20 06:26:28;;;;;;;37.92;29.75;;;8.70;89.40;;;;;;6155766;23;20017;-84
2021/04/20 06:28:54;;;;;;;43.10;32.05;;;8.70;89.70;;;;;;6156950;23;20084;-84
2021/04/20 06:31:22;;;;;;;39.78;29.70;;;8.80;90.00;;;;;;6156536;23;20446;-82
2021/04/20 06:33:48;;;;;;;42.63;31.65;;;8.90;90.00;;;;;;6156162;23;20017;-82
2021/04/20 06:36:15;;;;;;;40.92;29.90;;;8.90;90.00;;;;;;6155890;23;20045;-83
2021/04/20 06:38:41;;;;;;;37.53;29.30;;;9.00;90.00;;;;;;6156968;23;20013;-83
2021/04/20 06:41:09;;;;;;;38.25;30.23;;;9.10;89.80;;;;;;6155233;23;20029;-83
2021/04/20 06:43:52;;;;;;;49.13;35.55;;;9.20;89.50;;;;;;6157087;23;20017;-83
2021/04/20 06:46:28;;;;;;;42.70;31.30;;;9.20;89.70;;;;;;6156442;23;20017;-83
2021/04/20 06:49:05;;;;;;;42.60;31.38;;;9.30;89.40;;;;;;6129652;23;20379;-83
2021/04/20 06:51:39;;;;;;;48.80;34.60;;;9.40;89.20;;;;;;6156509;23;20056;-84
2021/04/20 06:54:22;;;;;;;45.58;34.17;;;9.50;89.40;;;;;;6155938;23;20014;-84
2021/04/20 06:57:01;;;;;;;44.20;32.55;;;9.60;89.20;;;;;;6156527;23;20485;-83
2021/04/20 07:00:04;;;;;;;41.80;32.08;;;9.60;88.90;;;;;;6155906;23;20505;-84
2021/04/20 07:02:48;;;;;;;48.38;34.70;;;9.70;88.70;;;;;;6117888;23;20334;-82
2021/04/20 07:05:23;;;;;;;41.70;30.73;;;9.80;88.70;;;;;;6155821;23;20054;-84
2021/04/20 07:08:00;;;;;;;42.78;32.60;;;9.90;88.40;;;;;;6154418;23;20013;-85
2021/04/20 07:10:34;;;;;;;39.08;29.65;;;10.00;88.00;;;;;;6155088;23;20533;-83
2021/04/20 07:13:05;;;;;;;48.72;33.75;;;10.10;88.00;;;;;;6155089;23;20346;-84
2021/04/20 07:15:33;;;;;;;45.47;34.58;;;10.10;88.00;;;;;;6155044;23;20014;-86
2021/04/20 07:18:30;;;;;;;43.67;31.65;;;10.20;87.90;;;;;;6156046;23;20092;-84
2021/04/20 07:21:30;;;;;;;44.20;32.97;;;10.30;87.70;;;;;;6156490;23;20017;-85
2021/04/20 07:24:20;;;;;;;49.13;34.67;;;10.40;87.80;;;;;;6154555;23;20183;-84
2021/04/20 07:27:23;;;;;;;45.55;34.08;;;10.50;87.80;;;;;;6156095;23;20454;-85
2021/04/20 07:30:12;;;;;;;44.08;33.05;;;10.60;87.70;;;;;;6152215;23;20107;-83
2021/04/20 07:33:08;;;;;;;42.17;30.90;;;10.70;87.70;;;;;;6153055;23;20025;-85
2021/04/20 07:35:44;;;;;;;44.67;33.88;;;10.90;87.00;;;;;;6155949;23;20018;-84
2021/04/20 07:38:19;;;;;;;43.47;32.50;;;11.00;87.00;;;;;;6155278;23;20029;-85
2021/04/20 07:40:55;;;;;;;46.05;32.72;;;11.10;86.70;;;;;;6156239;23;20020;-85
2021/04/20 07:43:47;;;;;;;44.08;29.90;;;11.30;87.30;;;;;;6154863;23;20018;-84
2021/04/20 07:46:26;;;;;;;36.28;27.92;;;11.30;86.00;;;;;;6155379;23;20014;-85
2021/04/20 07:49:00;;;;;;;39.03;27.23;;;11.40;85.40;;;;;;6155808;23;20022;-85
2021/04/20 07:51:44;;;;;;;39.20;28.52;;;11.60;84.40;;;;;;6154354;23;20022;-86
2021/04/20 07:54:16;;;;;;;40.67;27.60;;;11.70;83.90;;;;;;6155677;23;20025;-85
2021/04/20 07:56:46;;;;;;;37.42;27.95;;;11.70;83.60;;;;;;6155972;23;20073;-85
2021/04/20 07:59:24;;;;;;;37.33;26.83;;;11.80;83.30;;;;;;6154754;23;20119;-86
2021/04/20 08:02:19;;;;;;;38.67;27.67;;;11.90;83.20;;;;;;6155909;23;20049;-86
2021/04/20 08:04:55;;;;;;;35.60;26.58;;;12.00;82.70;;;;;;6129372;23;20024;-85
2021/04/20 08:07:35;;;;;;;36.35;26.98;;;12.10;82.60;;;;;;6155317;23;20149;-87
2021/04/20 08:10:02;;;;;;;37.88;27.85;;;12.10;82.10;;;;;;6156128;23;20024;-86
2021/04/20 08:12:41;;;;;;;40.47;27.50;;;12.30;82.20;;;;;;6153713;23;20025;-85
2021/04/20 08:15:12;;;;;;;38.10;27.45;;;12.30;81.40;;;;;;6155588;23;20316;-86
2021/04/20 08:17:55;;;;;;;37.03;27.30;;;12.40;81.20;;;;;;6155738;23;20363;-86
2021/04/20 08:20:24;;;;;;;40.38;27.85;;;12.50;80.90;;;;;;6153404;23;20518;-85
2021/04/20 08:22:54;;;;;;;41.95;28.73;;;12.60;80.90;;;;;;6155849;23;20057;-86
2021/04/20 08:25:29;;;;;;;36.30;26.90;;;12.70;80.80;;;;;;6154016;23;20454;-86
2021/04/20 08:28:42;;;;;;;38.53;27.38;;;12.70;81.20;;;;;;6155709;23;20014;-85
2021/04/20 08:31:34;;;;;;;38.72;27.15;;;12.80;80.90;;;;;;6086867;23;20032;-84
2021/04/20 08:34:27;;;;;;;40.88;27.75;;;12.90;80.50;;;;;;6150666;23;20024;-84
2021/04/20 08:37:01;;;;;;;39.13;25.88;;;13.00;80.80;;;;;;6155575;23;20017;-88
2021/04/20 08:39:42;;;;;;;34.60;24.65;;;13.10;80.40;;;;;;6153450;23;20021;-89
2021/04/20 08:42:31;;;;;;;35.83;25.70;;;13.20;81.50;;;;;;6151755;23;20017;-89
2021/04/20 08:45:16;;;;;;;33.30;25.00;;;13.30;80.70;;;;;;6153406;23;20461;-87
2021/04/20 08:48:03;;;;;;;33.22;24.20;;;13.40;80.70;;;;;;6154141;23;20129;-88
2021/04/20 08:50:34;;;;;;;30.88;23.00;;;13.40;80.60;;;;;;6154718;23;20084;-88
2021/04/20 08:53:21;;;;;;;30.42;22.17;;;13.50;80.10;;;;;;6154959;23;20022;-88
2021/04/20 08:55:58;;;;;;;30.45;22.58;;;13.60;79.70;;;;;;6155192;23;20021;-87
2021/04/20 08:58:47;;;;;;;25.45;20.20;;;13.70;80.40;;;;;;6155137;23;20014;-88
2021/04/20 09:01:50;;;;;;;29.15;22.20;;;13.80;80.00;;;;;;6154289;23;20458;-87
2021/04/20 09:04:50;;;;;;;31.85;23.88;;;13.90;80.50;;;;;;6155253;23;20025;-90
2021/04/20 09:07:32;;;;;;;25.40;18.63;;;14.00;80.90;;;;;;6157758;23;20085;-88
2021/04/20 09:10:14;;;;;;;25.30;18.60;;;14.10;80.10;;;;;;6158588;23;20024;-90
2021/04/20 09:12:41;;;;;;;23.58;19.02;;;14.10;79.70;;;;;;6156062;23;20056;-89
2021/04/20 09:15:12;;;;;;;24.65;18.98;;;14.20;79.60;;;;;;6154490;23;20052;-87
2021/04/20 09:17:55;;;;;;;23.70;18.08;;;14.40;79.30;;;;;;6155624;23;20068;-86
2021/04/20 09:20:31;;;;;;;23.57;16.87;;;14.40;78.90;;;;;;6155209;23;20048;-86
2021/04/20 09:23:08;;;;;;;25.98;17.67;;;14.50;78.90;;;;;;6153542;23;20092;-86
2021/04/20 09:25:54;;;;;;;24.83;17.42;;;14.70;78.20;;;;;;6155447;23;20014;-92
2021/04/20 09:28:28;;;;;;;25.10;15.73;;;14.70;79.20;;;;;;6154159;23;20025;-86
2021/04/20 09:30:57;;;;;;;22.75;16.25;;;14.80;77.80;;;;;;6154945;23;20044;-91
2021/04/20 09:33:47;;;;;;;22.23;15.02;;;14.90;77.40;;;;;;6152322;23;20506;-86
2021/04/20 09:36:15;;;;;;;20.48;14.68;;;15.00;74.50;;;;;;6123432;23;20014;-85
2021/04/20 09:39:13;;;;;;;27.17;16.20;;;15.10;74.60;;;;;;6122175;23;20170;-83
2021/04/20 09:42:06;;;;;;;23.90;13.05;;;15.10;76.10;;;;;;6126121;23;20457;-85
2021/04/20 09:44:51;;;;;;;25.30;13.82;;;15.30;73.30;;;;;;6125429;23;20029;-87
2021/04/20 09:47:42;;;;;;;20.30;13.48;;;15.40;72.10;;;;;;6126516;23;20022;-86
2021/04/20 09:50:30;;;;;;;23.63;13.65;;;15.40;72.00;;;;;;6126013;23;20045;-86
2021/04/20 09:53:21;;;;;;;21.20;12.90;;;15.50;72.00;;;;;;6127259;23;20018;-87
2021/04/20 09:56:12;;;;;;;19.58;12.60;;;15.60;71.10;;;;;;6127780;23;20017;-87
2021/04/20 09:58:42;;;;;;;17.02;13.43;;;15.60;71.10;;;;;;6126606;23;20025;-87
2021/04/20 10:01:44;;;;;;;20.35;14.63;;;15.70;71.90;;;;;;6127205;23;20462;-87
2021/04/20 10:04:40;;;;;;;20.10;12.50;;;15.80;73.80;;;;;;6125392;23;20017;-86
2021/04/20 10:07:19;;;;;;;18.63;12.20;;;15.80;72.10;;;;;;6126925;23;20018;-87
2021/04/20 10:10:02;;;;;;;17.15;11.40;;;15.90;71.90;;;;;;6127661;23;20018;-87
2021/04/20 10:13:05;;;;;;;19.90;13.18;;;16.00;71.10;;;;;;6125983;23;20025;-86
2021/04/20 10:15:36;;;;;;;19.25;13.48;;;16.10;73.60;;;;;;6127453;23;20018;-89
2021/04/20 10:18:17;;;;;;;18.35;12.85;;;16.20;74.70;;;;;;6126504;23;20379;-85
2021/04/20 10:20:50;;;;;;;17.58;11.10;;;16.30;75.60;;;;;;6126658;23;20451;-86
2021/04/20 10:23:34;;;;;;;13.70;8.50;;;16.40;75.00;;;;;;6127437;23;20084;-84
2021/04/20 10:26:14;;;;;;;14.02;9.35;;;16.50;67.60;;;;;;6125977;23;20018;-85
2021/04/20 10:28:42;;;;;;;18.05;10.88;;;16.50;70.80;;;;;;6118160;23;20017;-84
2021/04/20 10:31:25;;;;;;;15.88;10.77;;;16.60;72.70;;;;;;6127005;23;20021;-84
2021/04/20 10:33:52;;;;;;;17.83;10.90;;;16.70;73.90;;;;;;6131492;23;20536;-87
2021/04/20 10:36:24;;;;;;;17.10;10.50;;;16.80;75.00;;;;;;6155984;23;20018;-85
2021/04/20 10:38:54;;;;;;;15.35;9.55;;;16.90;74.80;;;;;;6155229;23;20017;-86
2021/04/20 10:41:33;;;;;;;14.82;10.95;;;17.00;74.40;;;;;;6156585;23;20018;-84
2021/04/20 10:44:00;;;;;;;13.63;9.30;;;17.10;75.50;;;;;;6156336;23;20023;-83
2021/04/20 10:46:29;;;;;;;12.13;8.55;;;17.20;75.70;;;;;;6154660;23;20512;-84
2021/04/20 10:48:59;;;;;;;15.68;9.05;;;17.30;75.30;;;;;;6130382;23;20076;-83
2021/04/20 10:51:30;;;;;;;15.95;9.75;;;17.40;74.90;;;;;;6148974;23;20453;-82
2021/04/20 10:53:57;;;;;;;13.88;9.48;;;17.50;76.20;;;;;;6153986;23;20092;-82
2021/04/20 10:56:24;;;;;;;10.90;7.47;;;17.60;76.20;;;;;;6155317;23;20358;-83
2021/04/20 10:58:54;;;;;;;11.02;7.07;;;17.70;73.80;;;;;;6156060;23;20021;-84
2021/04/20 11:01:23;;;;;;;12.73;6.25;;;17.70;72.60;;;;;;6154054;23;20024;-84
2021/04/20 11:03:51;;;;;;;13.20;8.60;;;17.80;71.00;;;;;;6146113;23;20017;-84
2021/04/20 11:06:54;;;;;;;12.05;7.05;;;17.90;73.70;;;;;;6154678;23;20025;-84
2021/04/20 11:09:33;;;;;;;10.80;6.30;;;18.00;73.60;;;;;;6155512;23;20017;-85
2021/04/20 11:12:14;;;;;;;13.02;6.00;;;18.10;72.10;;;;;;6156106;23;20022;-85
2021/04/20 11:14:42;;;;;;;11.88;6.65;;;18.20;67.80;;;;;;6154813;23;20024;-83
2021/04/20 11:17:22;;;;;;;10.52;5.57;;;18.30;70.90;;;;;;6155323;23;20453;-84
2021/04/20 11:19:54;;;;;;;11.32;6.68;;;18.30;67.50;;;;;;6155049;23;20014;-83
2021/04/20 11:22:24;;;;;;;8.88;4.90;;;18.40;70.10;;;;;;6154338;23;20013;-84
2021/04/20 11:24:58;;;;;;;11.40;5.60;;;18.40;63.90;;;;;;6156029;23;20014;-84
2021/04/20 11:27:29;;;;;;;9.68;5.70;;;18.40;65.30;;;;;;6150230;23;20045;-83
2021/04/20 11:30:13;;;;;;;8.85;5.95;;;18.50;68.30;;;;;;6150559;23;20013;-84
2021/04/20 11:32:48;;;;;;;9.38;6.43;;;18.60;70.40;;;;;;6155132;23;20040;-83
2021/04/20 11:35:18;;;;;;;9.23;5.55;;;18.70;70.60;;;;;;6154153;23;20017;-84
2021/04/20 11:37:46;;;;;;;8.93;5.78;;;18.80;69.20;;;;;;6155077;23;20021;-83
2021/04/20 11:40:24;;;;;;;10.18;5.78;;;18.90;71.00;;;;;;6155188;23;20343;-83
2021/04/20 11:42:51;;;;;;;8.70;5.35;;;19.00;70.20;;;;;;6144394;23;20027;-83
2021/04/20 11:45:20;;;;;;;9.20;5.78;;;19.00;65.80;;;;;;6146458;23;20028;-84
2021/04/20 11:47:54;;;;;;;10.18;5.22;;;19.00;67.00;;;;;;6154633;23;20025;-84
2021/04/20 11:50:22;;;;;;;9.55;5.20;;;19.10;65.50;;;;;;6153526;23;20021;-84
2021/04/20 11:53:05;;;;;;;9.43;5.50;;;19.20;62.30;;;;;;6155110;23;20119;-83
2021/04/20 11:55:37;;;;;;;12.73;5.00;;;19.20;66.40;;;;;;6154464;23;20355;-82
2021/04/20 11:58:06;;;;;;;9.00;4.68;;;19.30;62.90;;;;;;6154577;23;20026;-82
2021/04/20 12:00:35;;;;;;;9.07;5.35;;;19.30;61.10;;;;;;6154641;23;20029;-83
2021/04/20 12:03:14;;;;;;;10.75;5.25;;;19.30;61.50;;;;;;6155142;23;20375;-84
2021/04/20 12:05:42;;;;;;;8.60;5.10;;;19.30;58.40;;;;;;6155535;23;20017;-85
2021/04/20 12:08:13;;;;;;;10.13;5.15;;;19.40;62.90;;;;;;6154940;23;20060;-85
2021/04/20 12:10:41;;;;;;;8.25;4.32;;;19.50;66.60;;;;;;6154188;23;20469;-85
2021/04/20 12:13:08;;;;;;;9.50;4.63;;;19.50;61.50;;;;;;6154806;23;20021;-85
2021/04/20 12:15:35;;;;;;;7.80;5.05;;;19.50;58.80;;;;;;6155209;23;20068;-84
2021/04/20 12:18:05;;;;;;;8.25;5.15;;;19.50;64.60;;;;;;6153740;23;20032;-85
2021/04/20 12:20:35;;;;;;;11.38;4.90;;;19.50;66.70;;;;;;6154297;23;20089;-84
2021/04/20 12:23:01;;;;;;;10.02;4.50;;;19.70;60.10;;;;;;6151938;23;20322;-84
2021/04/20 12:25:28;;;;;;;8.10;4.93;;;19.80;59.90;;;;;;6152056;23;20342;-84
2021/04/20 12:28:02;;;;;;;7.55;4.65;;;19.80;65.00;;;;;;6154430;23;20014;-84
2021/04/20 12:30:28;;;;;;;11.30;5.03;;;19.90;67.50;;;;;;6154177;23;20017;-84
2021/04/20 12:32:55;;;;;;;9.07;5.13;;;20.00;63.60;;;;;;6151956;23;20413;-84
2021/04/20 12:35:31;;;;;;;7.55;4.60;;;20.10;66.20;;;;;;6153411;23;20100;-84
2021/04/20 12:38:00;;;;;;;9.43;5.10;;;20.20;67.80;;;;;;6155032;23;20367;-85
2021/04/20 12:40:26;;;;;;;6.45;4.60;;;20.30;69.00;;;;;;6153848;23;20018;-85
2021/04/20 12:43:02;;;;;;;12.25;4.50;;;20.40;69.50;;;;;;6154904;23;20411;-84
2021/04/20 12:45:36;;;;;;;19.77;5.90;;;20.40;56.90;;;;;;6154153;23;20018;-85
2021/04/20 12:48:01;;;;;;;10.88;4.50;;;20.40;56.10;;;;;;6155314;23;20028;-84
2021/04/20 12:50:31;;;;;;;10.48;4.88;;;20.30;55.30;;;;;;6154281;23;20049;-86
2021/04/20 12:53:05;;;;;;;9.00;4.88;;;20.30;60.00;;;;;;6154192;23;20021;-84
2021/04/20 12:55:34;;;;;;;11.18;4.57;;;20.40;63.30;;;;;;6153673;23;20354;-84
2021/04/20 12:58:06;;;;;;;11.20;4.93;;;20.40;65.50;;;;;;6154316;23;20037;-85
2021/04/20 13:00:33;;;;;;;;;;;20.50;61.90;;;;;;6153806;23;20025;-83
2021/04/20 13:03:01;;;;;;;12.50;4.63;;;20.50;58.70;;;;;;6155131;23;19917;-85
2021/04/20 13:05:31;;;;;;;9.57;4.70;;;20.50;60.80;;;;;;6154125;23;20093;-85
2021/04/20 13:08:03;;;;;;;7.63;4.30;;;20.50;63.40;;;;;;6154409;23;20350;-84
2021/04/20 13:10:30;;;;;;;8.38;4.60;;;20.60;64.50;;;;;;6152879;23;20048;-85
2021/04/20 13:12:58;;;;;;;10.95;4.70;;;20.70;66.40;;;;;;6155220;23;20442;-84
2021/04/20 13:15:25;;;;;;;9.55;4.47;;;20.80;65.70;;;;;;6156186;23;20446;-85
2021/04/20 13:17:56;;;;;;;9.07;4.57;;;20.80;63.00;;;;;;6158017;23;20025;-84
2021/04/20 13:20:32;;;;;;;8.43;5.07;;;20.80;62.60;;;;;;6158013;23;20024;-85